createdAt,value
2022-08-27T00:02:19.030Z,5.67
2022-08-27T00:04:46.442Z,5.33
2022-08-27T00:07:13.670Z,5.10
2022-08-27T00:09:40.550Z,7.20
2022-08-27T00:12:08.433Z,5.43
2022-08-27T00:14:36.373Z,4.93
2022-08-27T00:17:05.394Z,4.50
2022-08-27T00:19:32.396Z,6.70
2022-08-27T00:21:59.021Z,5.50
2022-08-27T00:24:25.598Z,5.33
2022-08-27T00:26:53.816Z,6.60
2022-08-27T00:29:21.391Z,5.60
2022-08-27T00:31:51.900Z,7.47
2022-08-27T00:34:21.692Z,5.37
2022-08-27T00:36:49.027Z,5.20
2022-08-27T00:39:15.827Z,5.13
2022-08-27T00:41:43.334Z,4.73
2022-08-27T00:44:10.505Z,5.13
2022-08-27T00:46:41.922Z,5.60
2022-08-27T00:49:13.354Z,5.40
2022-08-27T00:51:40.899Z,5.30
2022-08-27T00:54:09.413Z,5.20
2022-08-27T00:56:51.720Z,5.63
2022-08-27T00:59:21.039Z,7.00
2022-08-27T01:02:06.415Z,6.53
2022-08-27T01:04:34.237Z,6.70
2022-08-27T01:07:02.330Z,6.23
2022-08-27T01:09:29.446Z,5.63
2022-08-27T01:11:58.107Z,5.27
2022-08-27T01:14:25.935Z,6.70
2022-08-27T01:16:57.222Z,7.07
2022-08-27T01:19:35.702Z,5.50
2022-08-27T01:22:11.152Z,5.77
2022-08-27T01:24:51.598Z,6.13
2022-08-27T01:27:24.722Z,5.20
2022-08-27T01:29:51.670Z,5.20
2022-08-27T01:32:24.944Z,7.40
2022-08-27T01:34:52.085Z,5.87
2022-08-27T01:37:23.881Z,7.03
2022-08-27T01:39:52.850Z,7.43
2022-08-27T01:42:24.752Z,5.17
2022-08-27T01:44:54.604Z,5.73
2022-08-27T01:47:23.113Z,5.63
2022-08-27T01:49:57.585Z,7.90
2022-08-27T01:52:27.044Z,5.33
2022-08-27T01:54:53.857Z,5.53
2022-08-27T01:57:25.362Z,5.43
2022-08-27T01:59:52.986Z,5.27
2022-08-27T02:02:19.689Z,5.20
2022-08-27T02:04:46.516Z,6.50
2022-08-27T02:07:13.212Z,5.83
2022-08-27T02:09:39.849Z,6.33
2022-08-27T02:12:06.756Z,5.40
2022-08-27T02:14:33.358Z,6.37
2022-08-27T02:16:59.989Z,5.73
2022-08-27T02:19:27.416Z,7.17
2022-08-27T02:21:54.531Z,5.20
2022-08-27T02:24:21.718Z,6.07
2022-08-27T02:26:48.284Z,7.47
2022-08-27T02:29:14.823Z,5.60
2022-08-27T02:31:42.060Z,5.90
2022-08-27T02:34:09.703Z,5.53
2022-08-27T02:36:37.378Z,6.87
2022-08-27T02:39:06.448Z,6.23
2022-08-27T02:41:33.014Z,7.17
2022-08-27T02:44:01.194Z,6.10
2022-08-27T02:46:28.889Z,6.03
2022-08-27T02:48:55.744Z,6.97
2022-08-27T02:51:22.617Z,6.50
2022-08-27T02:53:50.266Z,6.60
2022-08-27T02:56:17.366Z,6.33
2022-08-27T02:58:49.290Z,5.87
2022-08-27T03:01:16.280Z,7.70
2022-08-27T03:03:43.612Z,6.80
2022-08-27T03:06:10.390Z,6.07
2022-08-27T03:08:52.163Z,6.40
2022-08-27T03:11:20.391Z,10.53
2022-08-27T03:13:47.004Z,7.27
2022-08-27T03:16:13.685Z,10.23
2022-08-27T03:18:40.799Z,7.37
2022-08-27T03:21:08.183Z,6.80
2022-08-27T03:23:35.343Z,7.07
2022-08-27T03:26:09.471Z,6.93
2022-08-27T03:28:36.238Z,7.90
2022-08-27T03:31:05.949Z,8.73
2022-08-27T03:33:37.633Z,7.73
2022-08-27T03:36:08.649Z,7.27
2022-08-27T03:38:36.249Z,8.10
2022-08-27T03:41:04.214Z,7.33
2022-08-27T03:43:30.790Z,7.30
2022-08-27T03:46:02.033Z,8.37
2022-08-27T03:48:30.880Z,7.10
2022-08-27T03:50:58.169Z,8.37
2022-08-27T03:53:24.800Z,7.93
2022-08-27T03:55:51.374Z,7.10
2022-08-27T03:58:18.033Z,7.83
2022-08-27T04:00:45.083Z,7.60
2022-08-27T04:03:14.395Z,7.60
2022-08-27T04:05:42.561Z,8.73
2022-08-27T04:08:12.842Z,9.47
2022-08-27T04:10:41.299Z,8.00
2022-08-27T04:13:07.901Z,9.27
2022-08-27T04:15:34.510Z,10.33
2022-08-27T04:18:07.156Z,6.87
2022-08-27T04:20:35.476Z,7.27
2022-08-27T04:23:03.054Z,6.70
2022-08-27T04:25:29.588Z,8.07
2022-08-27T04:27:56.287Z,7.23
2022-08-27T04:30:22.937Z,7.23
2022-08-27T04:32:50.524Z,7.30
2022-08-27T04:35:17.549Z,7.40
2022-08-27T04:37:44.345Z,8.40
2022-08-27T04:40:12.427Z,8.17
2022-08-27T04:42:39.100Z,7.90
2022-08-27T04:45:05.993Z,7.03
2022-08-27T04:47:33.146Z,9.40
2022-08-27T04:49:59.915Z,8.57
2022-08-27T04:52:27.197Z,10.53
2022-08-27T04:54:55.097Z,7.27
2022-08-27T04:57:21.857Z,7.20
2022-08-27T04:59:48.492Z,7.30
2022-08-27T05:02:15.158Z,7.00
2022-08-27T05:04:41.815Z,8.40
2022-08-27T05:07:10.384Z,7.37
2022-08-27T05:09:37.568Z,7.50
2022-08-27T05:12:04.633Z,9.50
2022-08-27T05:14:32.621Z,8.10
2022-08-27T05:17:00.393Z,7.37
2022-08-27T05:19:27.767Z,7.93
2022-08-27T05:21:54.437Z,8.20
2022-08-27T05:24:22.106Z,7.97
2022-08-27T05:26:50.167Z,8.27
2022-08-27T05:29:20.324Z,8.27
2022-08-27T05:31:47.899Z,7.60
2022-08-27T05:34:16.896Z,8.17
2022-08-27T05:36:48.517Z,8.07
2022-08-27T05:39:16.662Z,7.73
2022-08-27T05:41:43.577Z,8.03
2022-08-27T05:44:39.063Z,7.67
2022-08-27T05:46:57.458Z,10.37
2022-08-27T05:49:24.265Z,8.50
2022-08-27T05:51:50.833Z,8.17
2022-08-27T05:54:19.473Z,8.03
2022-08-27T05:56:47.101Z,7.77
2022-08-27T05:59:34.890Z,7.63
2022-08-27T06:02:02.370Z,6.83
2022-08-27T06:04:29.306Z,7.17
2022-08-27T06:06:56.430Z,10.40
2022-08-27T06:09:26.087Z,11.10
2022-08-27T06:12:00.230Z,9.07
2022-08-27T06:14:28.036Z,8.80
2022-08-27T06:16:55.564Z,8.27
2022-08-27T06:19:22.854Z,8.43
2022-08-27T06:22:00.081Z,8.60
2022-08-27T06:24:28.872Z,8.93
2022-08-27T06:26:55.452Z,8.20
2022-08-27T06:29:23.606Z,8.20
2022-08-27T06:31:50.385Z,8.30
2022-08-27T06:34:17.416Z,7.73
2022-08-27T06:36:44.366Z,7.80
2022-08-27T06:39:13.778Z,6.83
2022-08-27T06:41:41.565Z,7.83
2022-08-27T06:44:11.943Z,6.77
2022-08-27T06:46:38.715Z,7.60
2022-08-27T06:49:06.551Z,7.07
2022-08-27T06:51:35.218Z,7.17
2022-08-27T06:54:04.695Z,7.50
2022-08-27T06:56:32.162Z,9.73
2022-08-27T06:59:01.793Z,7.67
2022-08-27T07:01:35.883Z,8.10
2022-08-27T07:04:05.691Z,6.77
2022-08-27T07:06:33.732Z,6.90
2022-08-27T07:09:00.560Z,7.03
2022-08-27T07:11:29.021Z,6.40
2022-08-27T07:13:56.224Z,6.63
2022-08-27T07:16:25.777Z,8.97
2022-08-27T07:18:54.133Z,8.43
2022-08-27T07:21:21.957Z,5.43
2022-08-27T07:23:50.715Z,5.87
2022-08-27T07:26:17.822Z,7.90
2022-08-27T07:28:46.501Z,6.10
2022-08-27T07:31:19.668Z,5.47
2022-08-27T07:33:52.530Z,5.93
2022-08-27T07:36:21.972Z,5.70
2022-08-27T07:38:56.683Z,5.10
2022-08-27T07:41:30.763Z,4.90
2022-08-27T07:44:20.676Z,4.77
2022-08-27T07:46:49.116Z,4.90
2022-08-27T07:49:20.213Z,4.67
2022-08-27T07:51:46.878Z,4.63
2022-08-27T07:54:14.419Z,5.10
2022-08-27T07:56:41.577Z,4.23
2022-08-27T07:59:08.229Z,5.20
2022-08-27T08:01:35.542Z,4.57
2022-08-27T08:04:02.749Z,3.93
2022-08-27T08:06:29.341Z,3.73
2022-08-27T08:08:55.879Z,4.37
2022-08-27T08:11:22.514Z,6.23
2022-08-27T08:13:49.196Z,3.90
2022-08-27T08:16:16.082Z,4.00
2022-08-27T08:18:43.273Z,4.23
2022-08-27T08:21:13.866Z,5.27
2022-08-27T08:23:42.211Z,4.53
2022-08-27T08:26:10.349Z,3.93
2022-08-27T08:28:37.060Z,4.07
2022-08-27T08:31:04.577Z,4.47
2022-08-27T08:33:32.544Z,3.83
2022-08-27T08:36:17.585Z,4.00
2022-08-27T08:38:45.791Z,4.20
2022-08-27T08:41:40.077Z,3.70
2022-08-27T08:44:46.153Z,4.10
2022-08-27T08:47:21.689Z,3.70
2022-08-27T08:50:04.214Z,3.30
2022-08-27T08:52:48.354Z,4.67
2022-08-27T08:55:35.858Z,4.03
2022-08-27T08:58:32.257Z,4.13
2022-08-27T09:01:02.038Z,3.43
2022-08-27T09:03:30.079Z,3.80
2022-08-27T09:06:08.522Z,4.70
2022-08-27T09:08:41.567Z,3.57
2022-08-27T09:11:40.173Z,4.70
2022-08-27T09:14:35.805Z,4.10
2022-08-27T09:17:10.687Z,3.50
2022-08-27T09:19:38.911Z,4.00
2022-08-27T09:22:35.102Z,3.77
2022-08-27T09:25:16.837Z,5.40
2022-08-27T09:27:48.849Z,2.77
2022-08-27T09:30:30.932Z,4.00
2022-08-27T09:33:04.360Z,4.07
2022-08-27T09:35:46.766Z,3.17
2022-08-27T09:38:33.727Z,2.83
2022-08-27T09:41:05.756Z,3.17
2022-08-27T09:43:32.609Z,2.50
2022-08-27T09:46:05.002Z,2.70
2022-08-27T09:48:35.711Z,3.10
2022-08-27T09:51:14.983Z,3.17
2022-08-27T09:53:55.877Z,2.80
2022-08-27T09:56:50.811Z,3.10
2022-08-27T09:59:26.889Z,1.93
2022-08-27T10:02:00.404Z,2.37
2022-08-27T10:04:50.568Z,2.60
2022-08-27T10:07:34.043Z,2.80
2022-08-27T10:10:04.425Z,2.97
2022-08-27T10:12:42.651Z,2.30
2022-08-27T10:15:11.574Z,2.57
2022-08-27T10:17:51.994Z,2.00
2022-08-27T10:20:31.011Z,2.90
2022-08-27T10:23:14.920Z,2.17
2022-08-27T10:26:29.677Z,2.30
2022-08-27T10:29:30.905Z,2.40
2022-08-27T10:32:25.390Z,3.80
2022-08-27T10:35:09.040Z,2.50
2022-08-27T10:37:52.175Z,3.63
2022-08-27T10:40:31.959Z,2.03
2022-08-27T10:43:42.233Z,2.00
2022-08-27T10:46:18.141Z,2.10
2022-08-27T10:49:08.337Z,2.10
2022-08-27T10:51:51.152Z,2.23
2022-08-27T10:54:32.408Z,2.27
2022-08-27T10:57:28.898Z,2.50
2022-08-27T11:00:13.571Z,2.10
2022-08-27T11:03:07.289Z,2.47
2022-08-27T11:05:43.400Z,2.17
2022-08-27T11:08:17.882Z,2.83
2022-08-27T11:11:49.853Z,4.17
2022-08-27T11:14:01.419Z,2.23
2022-08-27T11:16:52.485Z,2.43
2022-08-27T11:19:29.090Z,2.40
2022-08-27T11:22:14.876Z,3.17
2022-08-27T11:24:52.634Z,2.63
2022-08-27T11:27:25.702Z,2.50
2022-08-27T11:30:05.331Z,3.10
2022-08-27T11:32:44.290Z,3.07
2022-08-27T11:35:20.673Z,3.13
2022-08-27T11:38:10.832Z,3.17
2022-08-27T11:40:59.713Z,3.33
2022-08-27T11:43:32.721Z,3.03
2022-08-27T11:46:10.328Z,3.90
2022-08-27T11:48:40.830Z,3.40
2022-08-27T11:51:12.594Z,3.93
2022-08-27T11:53:59.306Z,3.80
2022-08-27T11:56:28.942Z,3.97
2022-08-27T11:58:56.224Z,3.77
2022-08-27T12:01:31.574Z,3.70
2022-08-27T12:04:08.183Z,4.07
2022-08-27T12:06:44.316Z,4.77
2022-08-27T12:09:22.872Z,6.30
2022-08-27T12:12:08.163Z,4.30
2022-08-27T12:14:45.486Z,4.90
2022-08-27T12:17:40.760Z,5.10
2022-08-27T12:20:22.839Z,5.03
2022-08-27T12:23:42.773Z,4.73
2022-08-27T12:26:39.732Z,5.13
2022-08-27T12:29:39.371Z,5.87
2022-08-27T12:32:25.019Z,4.80
2022-08-27T12:35:05.031Z,5.23
2022-08-27T12:37:47.351Z,5.60
2022-08-27T12:40:24.554Z,5.50
2022-08-27T12:43:04.470Z,5.50
2022-08-27T12:45:31.223Z,6.30
2022-08-27T12:47:58.246Z,6.40
2022-08-27T12:50:30.347Z,6.20
2022-08-27T12:53:18.876Z,5.40
2022-08-27T12:55:50.625Z,5.37
2022-08-27T12:58:35.384Z,5.10
2022-08-27T13:01:21.090Z,6.80
2022-08-27T13:03:52.915Z,5.90
2022-08-27T13:06:27.349Z,5.10
2022-08-27T13:08:56.957Z,5.70
2022-08-27T13:11:29.850Z,6.07
2022-08-27T13:14:15.085Z,6.87
2022-08-27T13:16:57.327Z,6.43
2022-08-27T13:19:31.182Z,7.27
2022-08-27T13:22:01.366Z,7.13
2022-08-27T13:24:33.069Z,7.33
2022-08-27T13:27:03.565Z,6.27
2022-08-27T13:29:31.181Z,6.87
2022-08-27T13:31:59.362Z,6.30
2022-08-27T13:34:28.332Z,6.53
2022-08-27T13:36:59.774Z,6.13
2022-08-27T13:39:27.995Z,7.27
2022-08-27T13:41:58.094Z,5.83
2022-08-27T13:44:31.879Z,7.93
2022-08-27T13:47:03.247Z,6.63
2022-08-27T13:49:32.475Z,7.00
2022-08-27T13:52:02.561Z,7.77
2022-08-27T13:54:31.105Z,6.53
2022-08-27T13:57:08.215Z,6.20
2022-08-27T13:59:42.171Z,6.77
2022-08-27T14:02:10.029Z,6.10
2022-08-27T14:04:43.438Z,7.50
2022-08-27T14:07:17.418Z,6.13
2022-08-27T14:09:54.015Z,7.50
2022-08-27T14:12:41.391Z,5.90
2022-08-27T14:15:20.027Z,6.13
2022-08-27T14:17:47.376Z,6.43
2022-08-27T14:20:16.015Z,6.30
2022-08-27T14:22:43.755Z,5.40
2022-08-27T14:25:10.439Z,6.13
2022-08-27T14:27:38.803Z,8.77
2022-08-27T14:30:12.659Z,5.67
2022-08-27T14:32:39.504Z,6.23
2022-08-27T14:35:06.590Z,6.00
2022-08-27T14:37:33.336Z,6.17
2022-08-27T14:39:59.955Z,5.87
2022-08-27T14:42:28.750Z,5.87
2022-08-27T14:44:55.332Z,5.77
2022-08-27T14:47:21.988Z,6.43
2022-08-27T14:49:53.605Z,6.70
2022-08-27T14:52:20.154Z,6.30
2022-08-27T14:54:47.471Z,6.07
2022-08-27T14:57:14.158Z,5.90
2022-08-27T14:59:40.862Z,6.40
2022-08-27T15:02:11.465Z,6.27
2022-08-27T15:04:38.189Z,6.17
2022-08-27T15:07:05.136Z,7.03
2022-08-27T15:09:32.989Z,6.47
2022-08-27T15:11:59.797Z,7.47
2022-08-27T15:14:35.760Z,6.57
2022-08-27T15:17:25.436Z,7.00
2022-08-27T15:19:52.369Z,6.30
2022-08-27T15:22:22.162Z,5.83
2022-08-27T15:24:55.909Z,5.93
2022-08-27T15:27:32.082Z,5.70
2022-08-27T15:30:07.214Z,6.63
2022-08-27T15:32:39.274Z,5.53
2022-08-27T15:35:12.282Z,6.10
2022-08-27T15:37:39.590Z,5.47
2022-08-27T15:40:07.051Z,6.57
2022-08-27T15:42:33.882Z,5.47
2022-08-27T15:45:00.529Z,6.07
2022-08-27T15:47:27.146Z,7.00
2022-08-27T15:49:53.776Z,8.43
2022-08-27T15:52:22.239Z,6.63
2022-08-27T15:54:49.983Z,5.97
2022-08-27T15:57:18.237Z,6.03
2022-08-27T15:59:44.986Z,5.87
2022-08-27T16:02:17.600Z,6.63
2022-08-27T16:04:44.748Z,5.77
2022-08-27T16:07:17.816Z,6.47
2022-08-27T16:09:47.834Z,6.60
2022-08-27T16:12:27.501Z,6.27
2022-08-27T16:14:55.796Z,7.10
2022-08-27T16:17:23.743Z,6.60
2022-08-27T16:19:50.300Z,5.77
2022-08-27T16:22:17.065Z,6.47
2022-08-27T16:24:44.620Z,7.70
2022-08-27T16:27:11.238Z,5.87
2022-08-27T16:29:38.129Z,6.20
2022-08-27T16:32:07.550Z,7.17
2022-08-27T16:34:35.010Z,5.90
2022-08-27T16:37:01.706Z,6.40
2022-08-27T16:39:32.374Z,6.60
2022-08-27T16:42:00.402Z,6.47
2022-08-27T16:44:27.102Z,6.47
2022-08-27T16:46:53.736Z,6.60
2022-08-27T16:49:44.009Z,7.70
2022-08-27T16:52:10.725Z,7.87
2022-08-27T16:54:37.774Z,9.83
2022-08-27T16:57:04.614Z,7.00
2022-08-27T16:59:31.220Z,7.03
2022-08-27T17:01:57.959Z,7.77
2022-08-27T17:04:31.224Z,6.57
2022-08-27T17:07:01.076Z,6.47
2022-08-27T17:09:28.167Z,6.33
2022-08-27T17:11:58.309Z,7.10
2022-08-27T17:14:26.761Z,8.67
2022-08-27T17:16:53.862Z,8.50
2022-08-27T17:19:26.101Z,6.90
2022-08-27T17:21:54.749Z,8.00
2022-08-27T17:24:21.388Z,8.27
2022-08-27T17:26:48.037Z,6.03
2022-08-27T17:29:14.602Z,6.90
2022-08-27T17:31:43.488Z,6.50
2022-08-27T17:34:17.785Z,7.47
2022-08-27T17:36:45.289Z,6.63
2022-08-27T17:39:13.274Z,6.40
2022-08-27T17:41:42.692Z,7.73
2022-08-27T17:44:12.794Z,8.23
2022-08-27T17:46:39.625Z,7.43
2022-08-27T17:49:06.217Z,6.20
2022-08-27T17:51:33.121Z,6.23
2022-08-27T17:54:01.171Z,7.37
2022-08-27T17:56:28.895Z,7.80
2022-08-27T17:58:56.098Z,6.50
2022-08-27T18:01:28.162Z,6.97
2022-08-27T18:03:56.966Z,6.83
2022-08-27T18:06:24.475Z,7.23
2022-08-27T18:08:51.225Z,7.53
2022-08-27T18:11:18.391Z,7.30
2022-08-27T18:13:52.196Z,7.27
2022-08-27T18:16:19.399Z,6.63
2022-08-27T18:18:46.489Z,6.90
2022-08-27T18:21:13.818Z,7.97
2022-08-27T18:23:51.470Z,6.93
2022-08-27T18:26:20.413Z,7.73
2022-08-27T18:28:47.651Z,7.03
2022-08-27T18:31:18.609Z,6.37
2022-08-27T18:33:45.827Z,6.70
2022-08-27T18:36:12.691Z,6.90
2022-08-27T18:38:39.299Z,6.80
2022-08-27T18:41:08.362Z,6.87
2022-08-27T18:43:36.410Z,7.27
2022-08-27T18:46:04.915Z,6.97
2022-08-27T18:48:32.464Z,6.67
2022-08-27T18:51:01.025Z,6.53
2022-08-27T18:53:32.394Z,6.93
2022-08-27T18:55:59.610Z,6.63
2022-08-27T18:58:27.309Z,6.50
2022-08-27T19:00:56.948Z,8.13
2022-08-27T19:03:28.782Z,6.73
2022-08-27T19:05:56.248Z,8.10
2022-08-27T19:08:24.158Z,6.60
2022-08-27T19:10:50.861Z,9.50
2022-08-27T19:13:17.389Z,6.23
2022-08-27T19:15:50.137Z,6.83
2022-08-27T19:18:17.595Z,6.80
2022-08-27T19:20:44.423Z,7.53
2022-08-27T19:23:14.192Z,6.83
2022-08-27T19:25:41.955Z,6.17
2022-08-27T19:28:08.707Z,7.17
2022-08-27T19:30:35.461Z,7.33
2022-08-27T19:33:02.081Z,6.37
2022-08-27T19:35:28.766Z,7.30
2022-08-27T19:37:55.411Z,7.63
2022-08-27T19:40:22.843Z,7.57
2022-08-27T19:42:50.479Z,7.37
2022-08-27T19:45:22.959Z,7.50
2022-08-27T19:47:51.037Z,7.80
2022-08-27T19:50:17.953Z,6.83
2022-08-27T19:52:44.697Z,6.70
2022-08-27T19:55:14.104Z,6.70
2022-08-27T19:57:42.488Z,7.20
2022-08-27T20:00:11.497Z,7.47
2022-08-27T20:02:38.322Z,6.60
2022-08-27T20:05:17.790Z,6.33
2022-08-27T20:07:46.584Z,6.43
2022-08-27T20:10:13.539Z,6.70
2022-08-27T20:12:45.940Z,7.73
2022-08-27T20:15:12.729Z,7.17
2022-08-27T20:17:39.838Z,7.13
2022-08-27T20:20:07.444Z,6.43
2022-08-27T20:22:34.118Z,6.33
2022-08-27T20:25:00.917Z,6.30
2022-08-27T20:27:28.325Z,7.03
2022-08-27T20:30:00.635Z,6.47
2022-08-27T20:32:30.041Z,6.40
2022-08-27T20:34:57.427Z,7.10
2022-08-27T20:37:24.130Z,8.27
2022-08-27T20:39:52.299Z,6.37
2022-08-27T20:42:19.951Z,6.23
2022-08-27T20:44:47.293Z,11.17
2022-08-27T20:47:15.516Z,6.67
2022-08-27T20:49:44.322Z,6.13
2022-08-27T20:52:12.951Z,10.63
2022-08-27T20:54:39.697Z,7.97
2022-08-27T20:57:06.364Z,6.63
2022-08-27T20:59:51.498Z,7.43
2022-08-27T21:02:23.673Z,6.57
2022-08-27T21:04:50.436Z,6.77
2022-08-27T21:07:18.635Z,8.67
2022-08-27T21:09:57.068Z,7.37
2022-08-27T21:12:28.670Z,6.90
2022-08-27T21:14:56.691Z,7.40
2022-08-27T21:17:27.009Z,7.07
2022-08-27T21:19:53.838Z,9.23
2022-08-27T21:22:21.359Z,6.27
2022-08-27T21:24:48.178Z,6.27
2022-08-27T21:27:16.816Z,7.87
2022-08-27T21:29:44.783Z,6.13
2022-08-27T21:32:12.451Z,6.40
2022-08-27T21:34:39.407Z,7.23
2022-08-27T21:37:05.962Z,7.93
2022-08-27T21:39:34.140Z,6.97
2022-08-27T21:42:01.490Z,8.97
2022-08-27T21:44:29.532Z,6.80
2022-08-27T21:46:56.603Z,6.40
2022-08-27T21:49:23.226Z,6.70
2022-08-27T21:51:49.847Z,7.20
2022-08-27T21:54:16.411Z,6.97
2022-08-27T21:56:43.410Z,7.70
2022-08-27T21:59:10.026Z,8.17
2022-08-27T22:01:36.854Z,7.13
2022-08-27T22:04:03.742Z,6.93
2022-08-27T22:06:30.710Z,8.63
2022-08-27T22:08:57.254Z,6.97
2022-08-27T22:11:24.532Z,7.50
2022-08-27T22:13:52.371Z,6.83
2022-08-27T22:16:19.497Z,6.73
2022-08-27T22:18:46.188Z,7.07
2022-08-27T22:21:13.266Z,7.37
2022-08-27T22:23:39.871Z,6.83
2022-08-27T22:26:10.617Z,7.00
2022-08-27T22:28:37.211Z,7.30
2022-08-27T22:31:03.840Z,6.47
2022-08-27T22:33:30.384Z,7.10
2022-08-27T22:35:56.919Z,7.20
2022-08-27T22:38:23.499Z,7.43
2022-08-27T22:40:52.189Z,7.63
2022-08-27T22:43:19.145Z,9.77
2022-08-27T22:45:45.746Z,7.20
2022-08-27T22:48:12.605Z,7.40
2022-08-27T22:50:39.932Z,7.53
2022-08-27T22:53:07.053Z,7.07
2022-08-27T22:55:34.102Z,8.57
2022-08-27T22:58:01.978Z,7.97
2022-08-27T23:00:35.139Z,6.77
2022-08-27T23:03:05.424Z,6.97
2022-08-27T23:05:40.416Z,7.77
2022-08-27T23:08:09.730Z,7.97
2022-08-27T23:10:37.264Z,7.20
2022-08-27T23:13:06.894Z,8.20
2022-08-27T23:15:34.030Z,7.20
2022-08-27T23:18:01.588Z,7.33
2022-08-27T23:20:29.653Z,7.73
2022-08-27T23:22:56.569Z,7.80
2022-08-27T23:25:43.724Z,7.57
2022-08-27T23:28:14.788Z,10.10
2022-08-27T23:30:41.972Z,10.10
2022-08-27T23:33:08.562Z,7.13
2022-08-27T23:35:35.243Z,7.40
2022-08-27T23:38:01.991Z,7.73
2022-08-27T23:40:28.657Z,7.00
2022-08-27T23:42:55.355Z,7.87
2022-08-27T23:45:24.563Z,6.63
2022-08-27T23:47:51.542Z,6.00
2022-08-27T23:50:18.683Z,6.80
2022-08-27T23:52:45.501Z,6.30
2022-08-27T23:55:12.503Z,7.47
2022-08-27T23:57:39.735Z,9.20
